Time;durP1;ratioP1;P1;durP2;ratioP2;P2;SDS_P1;SDS_P2;PMS_P1;PMS_P2;Temp;Humidity;BMP_temperature;BMP_pressure;BME280_temperature;BME280_humidity;BME280_pressure;Samples;Min_cycle;Max_cycle;Signal;HPM_P1;HPM_P2
2021/06/24 00:01:12;;;;;;;12.13;10.53;;;15.60;1.00;;;;;;5091975;28;20739;-64
2021/06/24 00:03:39;;;;;;;15.77;11.20;;;15.60;1.00;;;;;;5092591;28;20208;-65
2021/06/24 00:06:07;;;;;;;15.20;10.87;;;15.60;1.00;;;;;;5092361;28;20207;-66
2021/06/24 00:08:34;;;;;;;20.10;10.93;;;15.60;1.00;;;;;;5092097;28;20708;-66
2021/06/24 00:11:03;;;;;;;15.53;10.60;;;15.50;1.00;;;;;;5091985;28;20208;-65
2021/06/24 00:13:30;;;;;;;18.00;10.93;;;15.60;1.00;;;;;;5092312;28;20208;-65
2021/06/24 00:15:57;;;;;;;15.77;11.20;;;15.50;1.00;;;;;;5091887;28;20231;-66
2021/06/24 00:18:24;;;;;;;20.13;11.47;;;15.50;1.00;;;;;;5092352;28;20220;-65
2021/06/24 00:20:51;;;;;;;16.93;10.83;;;15.50;1.00;;;;;;5091954;28;20204;-66
2021/06/24 00:23:18;;;;;;;14.90;10.70;;;15.50;7.40;;;;;;5092295;28;20207;-65
2021/06/24 00:25:45;;;;;;;18.23;10.77;;;15.40;7.90;;;;;;5092013;28;20196;-65
2021/06/24 00:28:15;;;;;;;14.17;10.83;;;15.50;28.90;;;;;;5092095;28;20228;-65
2021/06/24 00:30:43;;;;;;;16.13;11.20;;;15.40;23.70;;;;;;5091681;28;20219;-66
2021/06/24 00:33:10;;;;;;;16.13;11.13;;;15.40;21.10;;;;;;5091943;28;20703;-65
2021/06/24 00:35:37;;;;;;;15.00;11.10;;;15.40;52.50;;;;;;5092052;28;20220;-66
2021/06/24 00:38:04;;;;;;;14.20;10.67;;;15.40;90.70;;;;;;5091935;28;20227;-64
2021/06/24 00:40:33;;;;;;;17.53;10.83;;;15.40;97.00;;;;;;5091517;28;20258;-66
2021/06/24 00:43:01;;;;;;;15.57;11.47;;;15.50;93.40;;;;;;5091513;28;20240;-64
2021/06/24 00:45:29;;;;;;;15.13;11.87;;;15.40;99.90;;;;;;5092052;28;20207;-66
2021/06/24 00:47:55;;;;;;;14.77;11.53;;;15.40;99.90;;;;;;5091839;28;20254;-65
2021/06/24 00:50:22;;;;;;;14.97;12.10;;;15.40;99.90;;;;;;5091666;28;20212;-65
2021/06/24 00:52:49;;;;;;;19.20;12.33;;;15.30;99.90;;;;;;5091874;28;20231;-65
2021/06/24 00:55:15;;;;;;;19.67;11.87;;;15.30;99.90;;;;;;5091965;28;20220;-65
2021/06/24 00:57:42;;;;;;;17.63;11.90;;;15.40;99.90;;;;;;5091591;28;20231;-64
2021/06/24 01:00:11;;;;;;;20.40;12.53;;;15.40;99.90;;;;;;5091549;28;20204;-65
2021/06/24 01:02:40;;;;;;;19.80;12.50;;;15.40;99.90;;;;;;5091946;28;20208;-65
2021/06/24 01:05:07;;;;;;;17.93;12.43;;;15.30;99.90;;;;;;5091968;28;20204;-65
2021/06/24 01:07:34;;;;;;;16.60;11.97;;;15.30;99.90;;;;;;5091683;28;20228;-65
2021/06/24 01:10:01;;;;;;;19.07;13.40;;;15.30;99.90;;;;;;5091151;28;20230;-65
2021/06/24 01:12:28;;;;;;;20.33;12.63;;;15.30;99.90;;;;;;5091888;28;20235;-66
2021/06/24 01:14:54;;;;;;;18.47;13.70;;;15.30;99.90;;;;;;5091574;28;20220;-64
2021/06/24 01:17:21;;;;;;;17.90;12.87;;;15.30;99.90;;;;;;5094022;28;20208;-66
2021/06/24 01:19:54;;;;;;;18.23;13.33;;;15.30;99.90;;;;;;5095592;28;20230;-66
2021/06/24 01:22:20;;;;;;;17.77;13.47;;;15.40;99.90;;;;;;5095581;28;20208;-66
2021/06/24 01:24:48;;;;;;;20.17;13.70;;;15.40;99.90;;;;;;5095565;28;20200;-66
2021/06/24 01:27:15;;;;;;;17.93;14.20;;;15.40;99.90;;;;;;5095329;28;20213;-66
2021/06/24 01:29:42;;;;;;;20.87;13.73;;;15.40;99.90;;;;;;5095507;28;20215;-65
2021/06/24 01:32:08;;;;;;;21.63;14.00;;;15.40;99.90;;;;;;5094922;28;20204;-65
2021/06/24 01:34:38;;;;;;;21.80;14.70;;;15.30;99.90;;;;;;5095167;28;20574;-65
2021/06/24 01:37:05;;;;;;;18.17;13.40;;;15.30;99.90;;;;;;5094892;28;20302;-64
2021/06/24 01:39:32;;;;;;;17.67;13.67;;;15.30;99.90;;;;;;5095105;28;20243;-65
2021/06/24 01:42:02;;;;;;;21.83;15.53;;;15.20;99.90;;;;;;5094840;28;20209;-66
2021/06/24 01:44:30;;;;;;;21.30;14.80;;;15.20;99.90;;;;;;5095159;28;20233;-65
2021/06/24 01:46:57;;;;;;;21.27;15.10;;;15.20;99.90;;;;;;5094957;28;20584;-65
2021/06/24 01:49:24;;;;;;;20.37;14.37;;;15.20;99.90;;;;;;5094789;28;20730;-65
2021/06/24 01:51:50;;;;;;;21.80;13.57;;;15.20;99.90;;;;;;5094114;28;20209;-65
2021/06/24 01:54:18;;;;;;;24.03;16.37;;;15.20;99.90;;;;;;5095016;28;20204;-65
2021/06/24 01:56:45;;;;;;;19.93;15.67;;;15.10;99.90;;;;;;5094621;28;20228;-65
2021/06/24 01:59:13;;;;;;;20.10;15.27;;;15.20;99.90;;;;;;5094733;28;20246;-64
2021/06/24 02:01:40;;;;;;;21.67;15.53;;;15.10;99.90;;;;;;5094302;28;20219;-65
2021/06/24 02:04:07;;;;;;;22.70;16.07;;;15.10;99.90;;;;;;5094458;28;20208;-65
2021/06/24 02:06:34;;;;;;;23.30;14.77;;;15.10;1.00;;;;;;5094826;28;20204;-63
2021/06/24 02:09:01;;;;;;;20.33;15.13;;;15.10;1.00;;;;;;5094650;28;20224;-65
2021/06/24 02:11:27;;;;;;;20.33;15.03;;;15.10;1.00;;;;;;5094158;28;20208;-65
2021/06/24 02:13:54;;;;;;;22.30;15.17;;;15.00;1.00;;;;;;5094488;28;20211;-64
2021/06/24 02:16:22;;;;;;;22.90;14.83;;;15.00;1.00;;;;;;5094555;28;20244;-64
2021/06/24 02:18:49;;;;;;;20.97;15.57;;;15.00;1.00;;;;;;5094250;28;20225;-65
2021/06/24 02:21:16;;;;;;;21.03;14.23;;;15.00;1.00;;;;;;5094225;28;20204;-65
2021/06/24 02:23:42;;;;;;;22.20;15.13;;;15.10;1.00;;;;;;5094430;28;20204;-64
2021/06/24 02:26:09;;;;;;;22.30;15.00;;;15.00;1.00;;;;;;5094274;28;20207;-66
2021/06/24 02:28:36;;;;;;;21.90;15.53;;;15.00;1.00;;;;;;5093878;28;20731;-66
2021/06/24 02:31:03;;;;;;;21.07;15.67;;;15.00;1.00;;;;;;5093702;28;20580;-64
2021/06/24 02:33:32;;;;;;;21.60;16.07;;;15.00;1.00;;;;;;5094001;28;20219;-65
2021/06/24 02:35:59;;;;;;;24.80;16.60;;;15.00;1.00;;;;;;5094107;28;20321;-65
2021/06/24 02:38:26;;;;;;;22.20;16.00;;;15.00;1.00;;;;;;5094187;28;20228;-65
2021/06/24 02:40:53;;;;;;;26.27;16.87;;;15.00;1.00;;;;;;5093425;28;20215;-65
2021/06/24 02:43:20;;;;;;;24.93;17.13;;;15.00;1.00;;;;;;5094097;28;20553;-65
2021/06/24 02:45:47;;;;;;;21.73;15.90;;;14.90;1.00;;;;;;5093755;28;20578;-64
2021/06/24 02:48:13;;;;;;;24.80;16.97;;;14.90;52.10;;;;;;5093838;28;20224;-65
2021/06/24 02:50:41;;;;;;;23.17;16.60;;;14.90;39.40;;;;;;5093829;28;20211;-65
2021/06/24 02:53:08;;;;;;;24.97;16.63;;;14.90;99.90;;;;;;5093717;28;20208;-64
2021/06/24 02:55:35;;;;;;;28.47;17.10;;;14.80;99.90;;;;;;5093613;28;20224;-65
2021/06/24 02:58:02;;;;;;;29.93;17.80;;;14.80;99.90;;;;;;5093451;28;20715;-64
2021/06/24 03:00:29;;;;;;;28.37;16.87;;;14.80;99.90;;;;;;5093153;28;20200;-65
2021/06/24 03:02:56;;;;;;;24.90;17.77;;;14.80;99.90;;;;;;5093670;28;20579;-65
2021/06/24 03:05:22;;;;;;;25.57;18.77;;;14.70;99.90;;;;;;5093689;28;20548;-65
2021/06/24 03:07:50;;;;;;;24.80;17.63;;;14.70;99.90;;;;;;5093329;28;20252;-63
2021/06/24 03:10:20;;;;;;;24.70;18.13;;;14.70;99.90;;;;;;5093076;28;20207;-64
2021/06/24 03:12:46;;;;;;;27.23;18.60;;;14.70;1.00;;;;;;5093313;28;20253;-65
2021/06/24 03:15:14;;;;;;;23.10;17.83;;;14.70;1.00;;;;;;5093042;28;20734;-65
2021/06/24 03:17:41;;;;;;;29.00;19.17;;;14.70;1.00;;;;;;5093385;28;20568;-65
2021/06/24 03:20:10;;;;;;;23.10;17.67;;;14.70;1.00;;;;;;5092893;28;20211;-65
2021/06/24 03:22:37;;;;;;;21.87;16.87;;;14.70;1.00;;;;;;5093210;28;20215;-65
2021/06/24 03:25:07;;;;;;;25.10;18.20;;;14.60;7.30;;;;;;5093061;28;20677;-64
2021/06/24 03:27:34;;;;;;;25.07;18.27;;;14.60;93.70;;;;;;5093163;28;20214;-65
2021/06/24 03:30:01;;;;;;;24.73;19.07;;;14.50;99.90;;;;;;5092745;28;20207;-65
2021/06/24 03:32:28;;;;;;;25.83;17.70;;;14.50;99.90;;;;;;5093259;28;20212;-64
2021/06/24 03:34:54;;;;;;;28.40;17.97;;;14.50;99.90;;;;;;5093071;28;20241;-65
2021/06/24 03:37:21;;;;;;;27.17;18.83;;;14.40;1.00;;;;;;5092752;28;20224;-65
2021/06/24 03:39:48;;;;;;;29.40;19.23;;;14.40;1.00;;;;;;5092211;28;20211;-64
2021/06/24 03:42:16;;;;;;;32.20;19.10;;;14.40;1.00;;;;;;5092341;28;20214;-65
2021/06/24 03:44:43;;;;;;;28.07;19.37;;;14.40;1.00;;;;;;5092992;28;20211;-65
2021/06/24 03:47:10;;;;;;;23.63;18.30;;;14.40;1.00;;;;;;5092659;28;20207;-65
2021/06/24 03:49:36;;;;;;;28.77;18.53;;;14.50;1.00;;;;;;5092556;28;20716;-65
2021/06/24 03:52:04;;;;;;;30.50;18.67;;;14.50;1.00;;;;;;5092394;28;20204;-65
2021/06/24 03:54:31;;;;;;;29.37;18.83;;;14.50;1.00;;;;;;5092516;28;20208;-65
2021/06/24 03:56:58;;;;;;;31.23;20.17;;;14.50;1.00;;;;;;5092623;28;20227;-65
2021/06/24 03:59:26;;;;;;;26.23;19.17;;;14.50;1.00;;;;;;5092645;28;20265;-65
2021/06/24 04:01:53;;;;;;;27.17;20.50;;;14.50;5.40;;;;;;5092160;28;20208;-63
2021/06/24 04:04:19;;;;;;;27.47;18.83;;;14.50;99.90;;;;;;5092422;28;20204;-65
2021/06/24 04:06:46;;;;;;;28.83;20.07;;;14.50;97.50;;;;;;5092371;28;20672;-64
2021/06/24 04:09:14;;;;;;;26.87;20.00;;;14.50;22.90;;;;;;5092076;28;20228;-63
2021/06/24 04:11:41;;;;;;;27.40;19.47;;;14.60;11.10;;;;;;5092039;28;20211;-65
2021/06/24 04:14:08;;;;;;;29.27;18.47;;;14.60;1.00;;;;;;5092366;28;20215;-64
2021/06/24 04:16:36;;;;;;;32.00;21.00;;;14.60;1.00;;;;;;5072417;28;20233;-64
2021/06/24 04:19:02;;;;;;;27.77;18.80;;;14.60;1.00;;;;;;5071947;28;20228;-65
2021/06/24 04:21:29;;;;;;;31.37;18.07;;;14.60;1.00;;;;;;5071012;28;20308;-64
2021/06/24 04:23:57;;;;;;;28.53;19.93;;;14.60;1.00;;;;;;5071068;28;20219;-64
2021/06/24 04:26:24;;;;;;;27.10;19.63;;;14.60;1.00;;;;;;5072301;28;20205;-65
2021/06/24 04:28:51;;;;;;;33.30;19.50;;;14.60;1.00;;;;;;5071558;28;20235;-65
2021/06/24 04:31:17;;;;;;;28.53;19.27;;;14.60;1.00;;;;;;5090854;28;20208;-63
2021/06/24 04:33:45;;;;;;;29.37;20.67;;;14.70;21.50;;;;;;5091757;28;20215;-65
2021/06/24 04:36:12;;;;;;;32.87;18.50;;;14.70;1.00;;;;;;5091594;28;20243;-64
2021/06/24 04:38:39;;;;;;;25.43;17.13;;;14.70;99.90;;;;;;5091651;28;20224;-64
2021/06/24 04:41:05;;;;;;;24.53;19.63;;;14.70;99.90;;;;;;5091447;28;20569;-64
2021/06/24 04:43:32;;;;;;;26.20;17.67;;;14.80;99.90;;;;;;5091521;28;20204;-64
2021/06/24 04:45:59;;;;;;;31.90;20.23;;;14.80;99.90;;;;;;5091825;28;20200;-65
2021/06/24 04:48:25;;;;;;;30.53;20.57;;;14.70;99.90;;;;;;5091790;28;20227;-65
2021/06/24 04:50:53;;;;;;;28.80;17.87;;;14.80;99.90;;;;;;5092162;28;20255;-65
2021/06/24 04:53:20;;;;;;;35.00;20.23;;;14.70;99.90;;;;;;5096034;28;20218;-65
2021/06/24 04:55:47;;;;;;;29.37;19.40;;;14.80;1.00;;;;;;5095914;28;20227;-65
2021/06/24 04:58:14;;;;;;;27.37;19.23;;;14.80;1.00;;;;;;5095715;28;20227;-65
2021/06/24 05:00:40;;;;;;;29.43;19.60;;;14.90;99.90;;;;;;5095330;28;20207;-65
2021/06/24 05:03:10;;;;;;;27.57;19.23;;;15.00;99.90;;;;;;5095588;28;20583;-65
2021/06/24 05:05:37;;;;;;;33.20;19.50;;;15.10;99.90;;;;;;5095851;28;20208;-64
2021/06/24 05:08:10;;;;;;;24.43;17.87;;;15.20;1.00;;;;;;5095665;28;20224;-65
2021/06/24 05:10:37;;;;;;;29.20;18.77;;;15.30;1.00;;;;;;5095324;28;20624;-64
2021/06/24 05:13:04;;;;;;;25.17;17.10;;;15.40;1.00;;;;;;5095765;28;20205;-65
2021/06/24 05:15:30;;;;;;;26.73;17.60;;;15.50;99.90;;;;;;5095434;28;20200;-64
2021/06/24 05:17:57;;;;;;;29.17;19.07;;;15.40;99.90;;;;;;5095335;28;20220;-65
2021/06/24 05:20:24;;;;;;;29.77;19.10;;;15.40;99.90;;;;;;5095304;28;20663;-65
2021/06/24 05:22:51;;;;;;;25.90;18.77;;;15.50;99.90;;;;;;5095315;28;20668;-65
2021/06/24 05:25:19;;;;;;;31.73;19.73;;;15.50;99.90;;;;;;5095548;28;20211;-64
2021/06/24 05:27:46;;;;;;;29.67;19.43;;;15.50;99.90;;;;;;5095583;28;20232;-64
2021/06/24 05:30:13;;;;;;;33.77;20.10;;;15.50;99.90;;;;;;5070586;28;20209;-63
2021/06/24 05:32:41;;;;;;;30.47;19.27;;;15.50;99.90;;;;;;5071237;28;20215;-63
2021/06/24 05:35:09;;;;;;;27.67;20.03;;;15.50;99.90;;;;;;5071608;28;20220;-63
2021/06/24 05:37:35;;;;;;;33.10;19.93;;;15.50;14.30;;;;;;5071259;28;20314;-63
2021/06/24 05:40:02;;;;;;;28.23;20.30;;;15.40;35.20;;;;;;5070912;28;20216;-66
2021/06/24 05:42:31;;;;;;;32.33;21.77;;;15.40;99.90;;;;;;5071257;28;20213;-63
2021/06/24 05:44:57;;;;;;;29.20;19.73;;;15.40;71.50;;;;;;5070950;28;20217;-62
2021/06/24 05:47:24;;;;;;;32.03;20.80;;;15.40;99.90;;;;;;5071148;28;20200;-63
2021/06/24 05:49:51;;;;;;;27.10;18.73;;;15.40;99.90;;;;;;5071079;28;20217;-64
2021/06/24 05:52:17;;;;;;;31.20;19.97;;;15.50;95.70;;;;;;5070712;28;20223;-62
2021/06/24 05:54:44;;;;;;;25.53;19.70;;;15.50;21.30;;;;;;5070964;28;20204;-63
2021/06/24 05:57:11;;;;;;;27.00;20.93;;;15.50;51.50;;;;;;5070797;28;20233;-65
2021/06/24 05:59:39;;;;;;;27.70;20.00;;;15.60;99.90;;;;;;5070504;28;20255;-63
2021/06/24 06:02:06;;;;;;;32.80;20.60;;;15.70;24.30;;;;;;5070597;28;20435;-62
2021/06/24 06:04:32;;;;;;;27.83;21.37;;;15.80;71.10;;;;;;5073924;28;20220;-64
2021/06/24 06:06:59;;;;;;;29.80;20.43;;;15.80;1.00;;;;;;5073779;28;20209;-64
2021/06/24 06:09:26;;;;;;;29.57;20.73;;;15.90;1.00;;;;;;5073575;28;20240;-63
2021/06/24 06:11:54;;;;;;;33.17;23.50;;;15.90;1.00;;;;;;5073632;28;20709;-63
2021/06/24 06:14:20;;;;;;;28.50;21.63;;;15.90;1.00;;;;;;5073990;28;20215;-64
2021/06/24 06:16:48;;;;;;;27.80;20.53;;;15.90;1.00;;;;;;5073886;28;20236;-63
2021/06/24 06:19:15;;;;;;;36.87;22.03;;;16.00;1.00;;;;;;5074580;28;20228;-66
2021/06/24 06:21:42;;;;;;;33.13;22.47;;;16.00;99.90;;;;;;5074536;28;20213;-64
2021/06/24 06:24:09;;;;;;;33.30;23.93;;;16.10;99.90;;;;;;5074763;28;20205;-64
2021/06/24 06:26:35;;;;;;;33.10;22.70;;;16.10;99.90;;;;;;5074003;28;20205;-64
2021/06/24 06:29:05;;;;;;;33.43;23.50;;;16.10;99.90;;;;;;5075926;28;20235;-65
2021/06/24 06:31:33;;;;;;;35.53;23.10;;;16.10;99.90;;;;;;5076504;28;20208;-64
2021/06/24 06:34:01;;;;;;;30.33;22.87;;;16.10;99.90;;;;;;5075672;28;20665;-63
2021/06/24 06:36:28;;;;;;;35.80;24.33;;;16.10;99.90;;;;;;5073263;28;20228;-63
2021/06/24 06:38:55;;;;;;;36.30;24.50;;;16.10;99.90;;;;;;5072911;28;20610;-63
2021/06/24 06:41:22;;;;;;;33.87;24.33;;;16.10;99.90;;;;;;5072994;28;20213;-65
2021/06/24 06:43:48;;;;;;;36.60;25.87;;;16.10;99.90;;;;;;5073459;28;20205;-66
2021/06/24 06:46:15;;;;;;;37.73;25.27;;;16.20;99.90;;;;;;5073194;28;20292;-64
2021/06/24 06:48:42;;;;;;;37.87;26.60;;;16.30;99.90;;;;;;5072922;28;20228;-64
2021/06/24 06:51:10;;;;;;;39.47;29.10;;;16.40;99.90;;;;;;5072690;28;20224;-62
2021/06/24 06:53:37;;;;;;;37.57;25.80;;;16.50;99.90;;;;;;5072551;28;20211;-63
2021/06/24 06:56:05;;;;;;;39.83;28.67;;;16.50;99.90;;;;;;5072947;28;20233;-63
2021/06/24 06:58:31;;;;;;;39.53;28.53;;;16.50;99.90;;;;;;5072852;28;20221;-65
2021/06/24 07:00:58;;;;;;;38.33;28.87;;;16.70;99.90;;;;;;5084130;28;20223;-68
2021/06/24 07:03:25;;;;;;;37.97;27.63;;;17.00;98.10;;;;;;5093241;28;20204;-64
2021/06/24 07:05:52;;;;;;;37.40;28.47;;;17.10;1.00;;;;;;5092674;28;20208;-67
2021/06/24 07:08:20;;;;;;;41.83;26.07;;;16.90;1.00;;;;;;5092667;28;20588;-65
2021/06/24 07:10:46;;;;;;;41.80;30.03;;;17.00;8.60;;;;;;5092360;28;20208;-64
2021/06/24 07:13:13;;;;;;;39.93;29.70;;;16.90;36.90;;;;;;5092936;28;20212;-64
2021/06/24 07:15:40;;;;;;;39.10;28.13;;;17.00;99.90;;;;;;5091825;28;20549;-64
2021/06/24 07:18:11;;;;;;;38.03;28.07;;;17.10;1.00;;;;;;5092665;28;20608;-64
2021/06/24 07:20:38;;;;;;;38.13;29.13;;;17.20;1.00;;;;;;5092200;28;20227;-64
2021/06/24 07:23:05;;;;;;;44.00;30.33;;;17.00;1.00;;;;;;5092501;28;20200;-65
2021/06/24 07:25:33;;;;;;;45.57;33.00;;;17.20;49.20;;;;;;5092995;28;20212;-64
2021/06/24 07:27:59;;;;;;;39.20;32.03;;;17.20;25.40;;;;;;5092593;28;20346;-64
2021/06/24 07:30:26;;;;;;;39.07;29.03;;;17.50;1.00;;;;;;5091944;28;20208;-64
2021/06/24 07:32:53;;;;;;;38.97;29.20;;;17.70;1.00;;;;;;5092213;28;20204;-66
2021/06/24 07:35:20;;;;;;;38.93;28.57;;;17.90;1.00;;;;;;5092169;28;20216;-67
2021/06/24 07:37:47;;;;;;;30.73;25.23;;;18.10;1.00;;;;;;5092390;28;20629;-67
2021/06/24 07:40:15;;;;;;;36.97;25.30;;;18.10;1.00;;;;;;5091973;28;21280;-67
2021/06/24 07:42:43;;;;;;;33.47;22.93;;;18.00;1.00;;;;;;5092466;28;20211;-67
2021/06/24 07:45:11;;;;;;;31.40;23.97;;;18.00;1.00;;;;;;5092231;28;20208;-69
2021/06/24 07:47:37;;;;;;;36.23;25.53;;;18.10;1.00;;;;;;5092275;28;20231;-68
2021/06/24 07:50:05;;;;;;;31.77;25.83;;;17.90;1.00;;;;;;5091281;28;20204;-67
2021/06/24 07:52:32;;;;;;;34.53;24.50;;;17.90;1.00;;;;;;5092310;28;20205;-65
2021/06/24 07:54:58;;;;;;;35.70;24.40;;;18.00;1.00;;;;;;5091916;28;20681;-66
2021/06/24 07:57:28;;;;;;;33.13;25.13;;;18.20;1.00;;;;;;5091871;28;20228;-64
2021/06/24 07:59:56;;;;;;;33.80;27.00;;;18.10;1.00;;;;;;5091919;28;20211;-65
2021/06/24 08:02:23;;;;;;;33.80;25.17;;;18.00;1.00;;;;;;5091685;28;20204;-64
2021/06/24 08:04:50;;;;;;;36.67;28.07;;;18.10;1.00;;;;;;5091939;28;20683;-65
2021/06/24 08:07:16;;;;;;;35.47;25.10;;;18.30;1.00;;;;;;5091773;28;20250;-65
2021/06/24 08:09:43;;;;;;;34.07;24.97;;;18.40;1.00;;;;;;5091680;28;20204;-65
2021/06/24 08:12:10;;;;;;;33.27;25.43;;;18.60;1.00;;;;;;5090823;28;20200;-68
2021/06/24 08:14:37;;;;;;;34.20;23.13;;;18.70;1.00;;;;;;5091774;28;20679;-65
2021/06/24 08:17:05;;;;;;;33.90;24.43;;;18.70;99.90;;;;;;5091256;28;20235;-67
2021/06/24 08:19:32;;;;;;;33.33;24.63;;;18.80;1.00;;;;;;5091615;28;20247;-67
2021/06/24 08:21:59;;;;;;;36.53;28.13;;;18.60;99.90;;;;;;5091587;28;20216;-64
2021/06/24 08:24:26;;;;;;;34.33;25.93;;;18.20;1.00;;;;;;5091828;28;20209;-64
2021/06/24 08:26:53;;;;;;;39.10;28.30;;;18.20;1.00;;;;;;5091389;28;20587;-65
2021/06/24 08:29:20;;;;;;;40.17;30.77;;;18.10;1.00;;;;;;5091256;28;20228;-66
2021/06/24 08:31:47;;;;;;;49.87;35.73;;;18.10;1.00;;;;;;5091197;28;20211;-69
2021/06/24 08:34:15;;;;;;;47.17;32.67;;;18.30;1.00;;;;;;5091355;28;20594;-64
2021/06/24 08:36:42;;;;;;;43.70;32.57;;;18.50;1.00;;;;;;5091571;28;20258;-65
2021/06/24 08:39:08;;;;;;;44.90;33.30;;;18.30;1.00;;;;;;5091132;28;20236;-65
2021/06/24 08:41:37;;;;;;;45.00;33.93;;;18.50;1.00;;;;;;5091198;28;20208;-66
2021/06/24 08:44:05;;;;;;;44.10;33.80;;;18.70;1.00;;;;;;5091269;28;20665;-64
2021/06/24 08:46:33;;;;;;;43.30;33.77;;;18.90;99.90;;;;;;5091509;28;20649;-66
2021/06/24 08:49:02;;;;;;;44.83;35.10;;;18.90;99.90;;;;;;5091059;28;20872;-65
2021/06/24 08:51:30;;;;;;;42.10;33.13;;;19.00;1.00;;;;;;5091315;28;20295;-64
2021/06/24 08:53:59;;;;;;;38.67;31.10;;;19.10;99.90;;;;;;5091646;28;20211;-66
2021/06/24 08:56:26;;;;;;;36.83;29.90;;;19.50;99.90;;;;;;5091479;28;20203;-64
2021/06/24 08:58:52;;;;;;;39.47;29.43;;;19.50;99.90;;;;;;5090750;28;20238;-65
2021/06/24 09:01:20;;;;;;;35.30;28.27;;;19.70;99.90;;;;;;5090474;28;20229;-65
2021/06/24 09:03:49;;;;;;;38.83;30.23;;;19.70;99.90;;;;;;5091292;28;20204;-68
2021/06/24 09:06:16;;;;;;;33.20;29.47;;;19.40;99.90;;;;;;5091591;28;20208;-67
2021/06/24 09:08:46;;;;;;;35.73;25.63;;;19.40;99.90;;;;;;5091000;28;20266;-67
2021/06/24 09:11:19;;;;;;;28.53;22.90;;;19.30;99.90;;;;;;5090684;28;20200;-66
2021/06/24 09:13:57;;;;;;;37.00;25.80;;;19.20;99.90;;;;;;5091468;28;20208;-66
2021/06/24 09:16:26;;;;;;;34.10;24.40;;;18.90;99.90;;;;;;5091054;28;20664;-67
2021/06/24 09:19:12;;;;;;;30.87;26.60;;;18.80;99.90;;;;;;5090535;28;20315;-66
2021/06/24 09:21:38;;;;;;;32.37;25.00;;;18.90;99.90;;;;;;5090649;28;20220;-65
2021/06/24 09:24:21;;;;;;;31.47;23.90;;;19.10;99.90;;;;;;5091509;28;20279;-66
2021/06/24 09:26:48;;;;;;;30.97;21.97;;;19.10;99.90;;;;;;5076677;28;20205;-65
2021/06/24 09:29:16;;;;;;;40.43;30.93;;;19.30;99.90;;;;;;5070718;28;20221;-66
2021/06/24 09:31:43;;;;;;;29.50;22.37;;;19.20;99.90;;;;;;5070530;28;20674;-65
2021/06/24 09:34:12;;;;;;;26.93;18.60;;;19.50;99.90;;;;;;5070821;28;20204;-65
2021/06/24 09:36:40;;;;;;;29.43;23.13;;;19.40;99.90;;;;;;5070846;28;20201;-67
2021/06/24 09:39:11;;;;;;;31.50;23.17;;;19.30;99.90;;;;;;5073343;28;20236;-66
2021/06/24 09:41:55;;;;;;;29.87;22.67;;;19.50;99.90;;;;;;5074043;28;20201;-66
2021/06/24 09:44:23;;;;;;;26.60;22.30;;;19.80;99.90;;;;;;5074381;28;20212;-65
2021/06/24 09:46:50;;;;;;;29.90;21.17;;;19.90;99.90;;;;;;5074417;28;20205;-65
2021/06/24 09:49:29;;;;;;;28.77;21.57;;;19.70;99.90;;;;;;5074333;28;20614;-68
2021/06/24 09:51:58;;;;;;;22.80;18.87;;;19.70;99.90;;;;;;5074105;28;20212;-68
2021/06/24 09:54:34;;;;;;;27.27;22.47;;;19.70;99.90;;;;;;5073704;28;20205;-67
2021/06/24 09:57:03;;;;;;;24.90;20.60;;;19.50;99.90;;;;;;5073757;28;20220;-67
2021/06/24 09:59:40;;;;;;;26.77;20.93;;;19.70;99.90;;;;;;5073822;28;20325;-68
2021/06/24 10:02:16;;;;;;;24.53;21.87;;;19.90;99.90;;;;;;5074114;28;20214;-66
2021/06/24 10:04:44;;;;;;;26.53;21.37;;;20.10;99.90;;;;;;5075412;28;20208;-66
2021/06/24 10:07:12;;;;;;;29.03;21.90;;;20.10;99.90;;;;;;5074171;28;20205;-66
2021/06/24 10:09:42;;;;;;;29.47;22.80;;;19.90;99.90;;;;;;5073632;28;20227;-68
2021/06/24 10:12:11;;;;;;;27.93;22.53;;;19.60;99.90;;;;;;5073783;28;20205;-67
2021/06/24 10:14:40;;;;;;;24.57;20.37;;;19.80;99.90;;;;;;5074114;28;20251;-68
2021/06/24 10:17:08;;;;;;;27.60;20.97;;;19.90;99.90;;;;;;5073822;28;20209;-68
2021/06/24 10:19:37;;;;;;;26.57;20.10;;;20.00;99.90;;;;;;5073806;28;20221;-66
2021/06/24 10:22:09;;;;;;;25.80;21.17;;;20.20;99.90;;;;;;5073227;28;20205;-65
2021/06/24 10:24:40;;;;;;;26.90;22.00;;;20.00;99.90;;;;;;5074021;28;20666;-65
2021/06/24 10:27:10;;;;;;;28.00;20.67;;;19.80;99.90;;;;;;5073744;28;20577;-65
2021/06/24 10:29:43;;;;;;;30.40;23.97;;;19.80;99.90;;;;;;5074999;28;20311;-65
2021/06/24 10:32:24;;;;;;;26.77;21.37;;;19.70;99.90;;;;;;5074640;28;20837;-65
2021/06/24 10:34:52;;;;;;;28.43;22.20;;;19.60;99.90;;;;;;5073663;28;20232;-66
2021/06/24 10:37:22;;;;;;;25.53;19.70;;;19.50;99.90;;;;;;5073693;28;20368;-66
2021/06/24 10:39:50;;;;;;;25.73;20.50;;;20.00;99.90;;;;;;5075122;28;20227;-68
2021/06/24 10:42:22;;;;;;;27.67;20.03;;;20.30;99.90;;;;;;5081341;28;20204;-70
2021/06/24 10:44:55;;;;;;;25.60;21.37;;;20.60;99.90;;;;;;5073194;28;20205;-70
2021/06/24 10:47:36;;;;;;;28.07;19.87;;;20.70;99.90;;;;;;5073483;28;20212;-69
2021/06/24 10:50:48;;;;;;;21.00;18.70;;;20.70;99.90;;;;;;5072432;28;20201;-71
2021/06/24 10:53:45;;;;;;;23.33;17.50;;;20.70;99.90;;;;;;5073434;28;20205;-69
2021/06/24 10:56:33;;;;;;;23.73;17.33;;;21.00;99.90;;;;;;5072888;28;20658;-71
2021/06/24 10:59:04;;;;;;;23.87;19.03;;;20.90;99.90;;;;;;5072653;28;20233;-70
2021/06/24 11:01:47;;;;;;;25.33;18.77;;;20.70;99.90;;;;;;5072641;28;20311;-69
2021/06/24 11:04:32;;;;;;;20.07;17.97;;;21.10;99.90;;;;;;5073390;28;20205;-71
2021/06/24 11:07:04;;;;;;;22.00;17.60;;;21.40;99.90;;;;;;5073492;28;20208;-69
2021/06/24 11:09:31;;;;;;;22.50;17.80;;;21.30;99.90;;;;;;5086788;28;20262;-70
2021/06/24 11:11:58;;;;;;;21.50;18.00;;;21.60;99.90;;;;;;5092609;28;20568;-70
2021/06/24 11:15:02;;;;;;;20.67;17.40;;;21.90;99.90;;;;;;5092921;28;20219;-71
2021/06/24 11:17:44;;;;;;;20.17;17.50;;;21.70;99.90;;;;;;5092798;28;20688;-70
2021/06/24 11:20:20;;;;;;;20.67;17.57;;;21.80;99.90;;;;;;5092527;28;20206;-70
2021/06/24 11:23:11;;;;;;;;;;;;;;;;;;;;;
2021/06/24 11:26:05;;;;;;;20.30;17.27;;;21.70;99.90;;;;;;5087411;28;20214;-65
2021/06/24 11:28:41;;;;;;;21.53;17.70;;;21.70;99.90;;;;;;5087321;28;20287;-71
2021/06/24 11:31:10;;;;;;;22.10;17.03;;;21.60;99.90;;;;;;5071759;28;20303;-67
2021/06/24 11:33:43;;;;;;;22.20;18.07;;;21.70;99.90;;;;;;5072493;28;20282;-68
2021/06/24 11:36:13;;;;;;;22.13;18.33;;;21.60;99.90;;;;;;5072370;28;20209;-68
2021/06/24 11:38:48;;;;;;;28.77;19.63;;;21.30;99.90;;;;;;5071675;28;20229;-69
2021/06/24 11:41:17;;;;;;;24.60;19.93;;;21.00;99.90;;;;;;5071797;28;20201;-67
2021/06/24 11:43:58;;;;;;;20.40;18.23;;;20.90;99.90;;;;;;5071654;28;20205;-70
2021/06/24 11:46:27;;;;;;;27.90;18.30;;;20.80;99.90;;;;;;5071707;28;20289;-67
2021/06/24 11:49:07;;;;;;;21.03;18.40;;;20.70;99.90;;;;;;5071554;28;20217;-68
2021/06/24 12:05:22;;;;;;;21.77;19.20;;;20.90;99.90;;;;;;5091566;28;20295;-66
2021/06/24 12:07:49;;;;;;;23.80;20.40;;;20.90;99.90;;;;;;5091742;28;20608;-67
2021/06/24 12:10:23;;;;;;;22.23;17.30;;;21.00;99.90;;;;;;5091154;28;20295;-69
2021/06/24 12:12:49;;;;;;;21.87;17.20;;;21.10;99.90;;;;;;5091531;28;20726;-67
2021/06/24 12:15:16;;;;;;;22.97;18.03;;;21.10;99.90;;;;;;5091695;28;20673;-66
2021/06/24 12:21:03;;;;;;;17.10;14.93;;;21.40;99.90;;;;;;5090960;28;20215;-71
2021/06/24 12:23:29;;;;;;;17.17;14.70;;;21.60;99.90;;;;;;5091850;28;20218;-66
2021/06/24 12:25:59;;;;;;;20.97;18.20;;;21.40;99.90;;;;;;5091886;28;20208;-67
2021/06/24 12:28:26;;;;;;;17.93;14.07;;;21.60;99.90;;;;;;5091751;28;20642;-68
2021/06/24 12:30:55;;;;;;;21.77;17.57;;;21.50;99.90;;;;;;5091409;28;20204;-70
2021/06/24 12:33:25;;;;;;;17.53;15.73;;;21.30;99.90;;;;;;5092347;28;20295;-69
2021/06/24 12:36:03;;;;;;;21.33;18.23;;;21.50;99.90;;;;;;5092132;28;20298;-70
2021/06/24 12:38:32;;;;;;;20.30;17.57;;;21.50;99.90;;;;;;5091590;28;20228;-70
2021/06/24 12:41:01;;;;;;;21.37;19.17;;;21.30;99.90;;;;;;5090941;28;20285;-63
2021/06/24 12:43:29;;;;;;;23.13;20.23;;;21.20;99.90;;;;;;5091515;28;20215;-64
2021/06/24 12:45:58;;;;;;;23.77;21.27;;;21.30;99.90;;;;;;5091257;28;20215;-64
2021/06/24 12:48:31;;;;;;;25.33;20.40;;;21.10;99.90;;;;;;5091483;28;20242;-65
2021/06/24 12:51:00;;;;;;;24.27;20.53;;;21.10;99.90;;;;;;5091141;28;20240;-63
2021/06/24 12:53:33;;;;;;;21.43;19.23;;;21.20;99.90;;;;;;5091666;28;20200;-64
2021/06/24 12:56:00;;;;;;;23.63;21.13;;;21.30;99.90;;;;;;5091581;28;20300;-65